首页
METAR-TAF:

METAR-TAF

机场 :

恩吉利國際機場

金夏沙, 刚果

纬度: 04-23S, 经度: 015-26E, 海拔: 309米

当前天气观测

该预报发布于33分钟前的08:00 UTC
风速4节,风向南转西南
温度 23°C
湿度 83%
气压 1015 hPa
能見度: 2000
多云层高于1400英尺
轻雾

METAR: FZAA 160800Z 20004KT 2000 BR BKN014 23/20 Q1015 BECMG 6000 NSW

时间: 09:33 (08:33 UTC)

预报

该预报发布于3小时和33分钟前的05:00 UTC
预报有效从16日的 06点(UTC)到 17日的 12点(UTC)
风速6节,风向西南
能見度: 3500
散云层高于1600英尺
轻雾
几率 30%
从 16日的 07点(UTC)到 16日的 10点(UTC)
能見度: 0800
成为
从 16日的 11点(UTC)到 16日的 13点(UTC)
能見度: 6000
少量云层高于1800英尺
短暂存在
从 17日的 04点(UTC)到 17日的 09点(UTC)
能見度: 3000
轻雾,

TAF: FZAA 160500Z 1606/1712 22006KT 3500 BR SCT016 PROB30 1607/1610 0800 FG BECMG 1611/1613 6000 NSW FEW018 TEMPO 1704/1709 3000 BR

超过4000个机场的气象观测和天气预报(METAR&TAF报告)。

可查询的气象台以黄色和红色小点在地图上表示。

将鼠标移到小点上方,可查看气象台名称。

然后点击查看天气观测和预报。

如需切换地图:点击带黑十字的绿色按钮放大地图;点击带横线的绿色按钮缩小地图;或者点击绿色箭头查看邻近地区的地图。


METAR-TAF: